createdAt,value
2019-02-09T00:01:39.305Z,52.50
2019-02-09T00:04:05.578Z,53.14
2019-02-09T00:06:31.793Z,52.64
2019-02-09T00:08:58.057Z,53.14
2019-02-09T00:11:24.323Z,53.07
2019-02-09T00:13:50.508Z,52.43
2019-02-09T00:16:16.789Z,51.62
2019-02-09T00:18:43.052Z,52.22
2019-02-09T00:21:09.248Z,52.84
2019-02-09T00:23:35.528Z,53.75
2019-02-09T00:26:01.807Z,53.09
2019-02-09T00:28:28.008Z,52.93
2019-02-09T00:30:54.269Z,52.78
2019-02-09T00:33:20.550Z,52.14
2019-02-09T00:35:46.749Z,52.28
2019-02-09T00:38:13.081Z,52.29
2019-02-09T00:40:39.349Z,52.07
2019-02-09T00:43:05.634Z,52.29
2019-02-09T00:45:32.861Z,51.58
2019-02-09T00:47:59.135Z,51.13
2019-02-09T00:50:25.833Z,51.37
2019-02-09T00:52:52.126Z,50.90
2019-02-09T00:55:23.774Z,50.81
2019-02-09T00:57:51.970Z,50.47
2019-02-09T01:00:21.533Z,50.97
2019-02-09T01:02:47.796Z,52.19
2019-02-09T01:05:16.689Z,52.06
2019-02-09T01:07:42.974Z,51.79
2019-02-09T01:10:12.649Z,51.63
2019-02-09T01:12:38.848Z,50.47
2019-02-09T01:15:08.725Z,50.46
2019-02-09T01:17:34.884Z,50.16
2019-02-09T01:20:01.076Z,50.02
2019-02-09T01:22:27.373Z,50.77
2019-02-09T01:24:53.536Z,51.24
2019-02-09T01:27:19.839Z,51.86
2019-02-09T01:29:46.101Z,52.88
2019-02-09T01:32:12.271Z,52.97
2019-02-09T01:34:38.982Z,52.71
2019-02-09T01:37:05.255Z,53.75
2019-02-09T01:39:31.408Z,53.17
2019-02-09T01:41:57.732Z,52.75
2019-02-09T01:44:23.988Z,53.13
2019-02-09T01:46:50.148Z,53.12
2019-02-09T01:49:16.461Z,52.96
2019-02-09T01:51:42.647Z,53.46
2019-02-09T01:54:08.811Z,53.33
2019-02-09T01:56:35.173Z,54.30
2019-02-09T01:59:01.456Z,54.07
2019-02-09T02:01:27.613Z,53.56
2019-02-09T02:03:53.810Z,53.28
2019-02-09T02:06:19.982Z,53.16
2019-02-09T02:08:46.246Z,53.06
2019-02-09T02:11:12.547Z,52.94
2019-02-09T02:13:38.829Z,53.23
2019-02-09T02:16:05.478Z,53.89
2019-02-09T02:18:31.823Z,54.18
2019-02-09T02:20:58.028Z,54.89
2019-02-09T02:23:24.192Z,54.73
2019-02-09T02:25:50.404Z,54.19
2019-02-09T02:28:16.565Z,54.07
2019-02-09T02:30:42.823Z,53.85
2019-02-09T02:33:09.023Z,53.98
2019-02-09T02:35:36.190Z,53.77
2019-02-09T02:38:02.749Z,53.89
2019-02-09T02:40:28.943Z,53.83
2019-02-09T02:42:55.110Z,53.91
2019-02-09T02:45:22.772Z,53.71
2019-02-09T02:47:49.374Z,53.73
2019-02-09T02:50:17.342Z,53.84
2019-02-09T02:52:43.496Z,53.80
2019-02-09T02:55:14.716Z,53.80
2019-02-09T02:57:41.034Z,53.77
2019-02-09T03:00:13.436Z,53.63
2019-02-09T03:02:40.063Z,53.74
2019-02-09T03:05:09.703Z,53.67
2019-02-09T03:07:35.878Z,54.08
2019-02-09T03:10:03.504Z,53.69
2019-02-09T03:12:29.678Z,53.41
2019-02-09T03:14:55.965Z,53.02
2019-02-09T03:17:22.257Z,52.86
2019-02-09T03:19:48.431Z,50.99
2019-02-09T03:22:14.699Z,49.64
2019-02-09T03:24:40.909Z,49.41
2019-02-09T03:27:07.067Z,49.41
2019-02-09T03:29:33.339Z,49.51
2019-02-09T03:31:59.527Z,49.84
2019-02-09T03:34:25.795Z,48.89
2019-02-09T03:36:52.088Z,49.58
2019-02-09T03:39:18.301Z,49.64
2019-02-09T03:41:44.548Z,50.45
2019-02-09T03:44:10.821Z,50.18
2019-02-09T03:46:37.028Z,51.00
2019-02-09T03:49:03.391Z,49.95
2019-02-09T03:51:29.578Z,49.50
2019-02-09T03:53:55.802Z,48.88
2019-02-09T03:56:22.064Z,50.06
2019-02-09T03:58:49.166Z,50.21
2019-02-09T04:01:15.481Z,50.54
2019-02-09T04:03:41.956Z,50.26
2019-02-09T04:06:08.222Z,49.79
2019-02-09T04:08:34.547Z,49.96
2019-02-09T04:11:00.702Z,50.27
2019-02-09T04:13:26.963Z,51.22
2019-02-09T04:15:53.179Z,50.10
2019-02-09T04:18:19.444Z,49.52
2019-02-09T04:20:45.606Z,49.38
2019-02-09T04:23:11.807Z,49.45
2019-02-09T04:25:38.180Z,49.28
2019-02-09T04:28:04.437Z,48.66
2019-02-09T04:30:31.758Z,48.16
2019-02-09T04:32:58.319Z,47.98
2019-02-09T04:35:24.497Z,47.73
2019-02-09T04:37:50.985Z,47.70
2019-02-09T04:40:20.146Z,48.33
2019-02-09T04:42:46.427Z,48.79
2019-02-09T04:45:14.740Z,49.87
2019-02-09T04:47:41.012Z,49.74
2019-02-09T04:50:09.669Z,48.84
2019-02-09T04:52:35.980Z,50.08
2019-02-09T04:55:02.357Z,49.43
2019-02-09T04:57:28.643Z,49.56
2019-02-09T04:59:54.999Z,48.55
2019-02-09T05:02:22.096Z,49.54
2019-02-09T05:04:48.365Z,48.61
2019-02-09T05:07:14.562Z,48.30
2019-02-09T05:09:40.732Z,48.98
2019-02-09T05:12:07.360Z,48.54
2019-02-09T05:14:33.563Z,47.86
2019-02-09T05:16:59.749Z,47.26
2019-02-09T05:19:26.011Z,47.22
2019-02-09T05:21:52.220Z,47.25
2019-02-09T05:24:18.533Z,47.75
2019-02-09T05:26:44.691Z,47.32
2019-02-09T05:29:10.886Z,48.54
2019-02-09T05:31:37.163Z,49.38
2019-02-09T05:34:03.612Z,49.30
2019-02-09T05:36:29.909Z,49.27
2019-02-09T05:38:56.068Z,50.18
2019-02-09T05:41:22.352Z,49.93
2019-02-09T05:43:48.633Z,49.87
2019-02-09T05:46:14.811Z,50.11
2019-02-09T05:48:41.104Z,49.15
2019-02-09T05:51:07.312Z,49.09
2019-02-09T05:53:33.585Z,48.50
2019-02-09T05:55:59.756Z,48.20
2019-02-09T05:58:26.056Z,47.67
2019-02-09T06:00:53.283Z,47.37
2019-02-09T06:03:19.714Z,47.38
2019-02-09T06:05:46.034Z,47.25
2019-02-09T06:08:12.194Z,47.79
2019-02-09T06:10:38.452Z,47.31
2019-02-09T06:13:04.863Z,46.85
2019-02-09T06:15:31.124Z,46.55
2019-02-09T06:17:57.424Z,46.28
2019-02-09T06:20:27.680Z,46.08
2019-02-09T06:22:54.042Z,46.74
2019-02-09T06:25:20.211Z,47.39
2019-02-09T06:27:46.511Z,47.21
2019-02-09T06:30:16.381Z,45.83
2019-02-09T06:32:42.539Z,45.59
2019-02-09T06:35:10.139Z,44.96
2019-02-09T06:37:36.440Z,45.29
2019-02-09T06:40:05.881Z,45.47
2019-02-09T06:42:32.073Z,45.07
2019-02-09T06:44:58.238Z,43.81
2019-02-09T06:47:24.516Z,44.86
2019-02-09T06:49:50.811Z,44.14
2019-02-09T06:52:16.970Z,44.65
2019-02-09T06:54:43.250Z,44.96
2019-02-09T06:57:09.557Z,46.35
2019-02-09T06:59:35.818Z,45.38
2019-02-09T07:02:03.803Z,43.18
2019-02-09T07:04:30.153Z,41.89
2019-02-09T07:06:56.466Z,41.53
2019-02-09T07:09:22.630Z,41.42
2019-02-09T07:11:48.832Z,41.74
2019-02-09T07:14:15.393Z,41.43
2019-02-09T07:16:41.556Z,42.44
2019-02-09T07:19:07.773Z,42.82
2019-02-09T07:21:33.924Z,43.14
2019-02-09T07:24:00.178Z,43.78
2019-02-09T07:26:26.364Z,44.12
2019-02-09T07:28:52.532Z,44.53
2019-02-09T07:31:18.834Z,44.45
2019-02-09T07:33:45.024Z,44.40
2019-02-09T07:36:11.262Z,44.23
2019-02-09T07:38:37.428Z,43.78
2019-02-09T07:41:03.737Z,43.96
2019-02-09T07:43:30.006Z,44.44
2019-02-09T07:45:56.167Z,43.90
2019-02-09T07:48:24.079Z,43.32
2019-02-09T07:50:52.357Z,42.86
2019-02-09T07:53:18.631Z,43.06
2019-02-09T07:55:45.145Z,42.63
2019-02-09T07:58:11.400Z,42.71
2019-02-09T08:00:37.561Z,42.44
2019-02-09T08:03:04.607Z,41.96
2019-02-09T08:05:32.115Z,40.75
2019-02-09T08:07:58.350Z,40.38
2019-02-09T08:10:28.140Z,39.71
2019-02-09T08:12:54.605Z,39.41
2019-02-09T08:15:23.069Z,40.13
2019-02-09T08:17:51.497Z,39.54
2019-02-09T08:20:19.969Z,38.82
2019-02-09T08:22:46.535Z,39.75
2019-02-09T08:25:20.562Z,40.17
2019-02-09T08:27:46.869Z,39.73
2019-02-09T08:30:16.233Z,39.45
2019-02-09T08:32:42.421Z,39.62
2019-02-09T08:35:08.704Z,39.13
2019-02-09T08:37:34.903Z,38.05
2019-02-09T08:40:01.048Z,37.22
2019-02-09T08:42:27.208Z,36.77
2019-02-09T08:44:53.369Z,36.94
2019-02-09T08:47:19.675Z,38.33
2019-02-09T08:49:45.841Z,37.19
2019-02-09T08:52:12.102Z,36.71
2019-02-09T08:54:38.422Z,35.62
2019-02-09T08:57:04.585Z,35.23
2019-02-09T08:59:30.855Z,36.15
2019-02-09T09:01:57.073Z,36.39
2019-02-09T09:04:23.687Z,36.21
2019-02-09T09:06:49.836Z,35.83
2019-02-09T09:09:16.026Z,36.47
2019-02-09T09:11:42.188Z,35.08
2019-02-09T09:14:08.343Z,35.42
2019-02-09T09:16:34.540Z,35.49
2019-02-09T09:19:00.820Z,34.86
2019-02-09T09:21:27.107Z,35.46
2019-02-09T09:23:53.418Z,36.54
2019-02-09T09:26:19.572Z,34.61
2019-02-09T09:28:45.852Z,32.52
2019-02-09T09:31:12.052Z,31.59
2019-02-09T09:33:38.212Z,32.36
2019-02-09T09:36:04.670Z,34.04
2019-02-09T09:38:30.872Z,33.94
2019-02-09T09:40:57.203Z,32.54
2019-02-09T09:43:23.392Z,32.22
2019-02-09T09:45:49.579Z,33.62
2019-02-09T09:48:20.112Z,34.90
2019-02-09T09:50:46.272Z,32.86
2019-02-09T09:53:12.471Z,32.60
2019-02-09T09:55:39.303Z,33.53
2019-02-09T09:58:05.576Z,33.07
2019-02-09T10:00:32.291Z,33.78
2019-02-09T10:02:58.454Z,33.46
2019-02-09T10:05:24.783Z,34.85
2019-02-09T10:07:51.305Z,33.61
2019-02-09T10:10:18.893Z,33.57
2019-02-09T10:12:45.317Z,32.69
2019-02-09T10:15:14.886Z,34.99
2019-02-09T10:17:41.189Z,34.34
2019-02-09T10:20:10.868Z,33.42
2019-02-09T10:22:37.203Z,32.95
2019-02-09T10:25:05.177Z,32.95
2019-02-09T10:27:31.348Z,34.09
2019-02-09T10:29:57.656Z,35.44
2019-02-09T10:32:23.918Z,35.08
2019-02-09T10:34:50.070Z,34.50
2019-02-09T10:37:16.409Z,34.89
2019-02-09T10:39:42.571Z,35.53
2019-02-09T10:42:08.756Z,32.67
2019-02-09T10:44:35.162Z,31.57
2019-02-09T10:47:01.320Z,30.94
2019-02-09T10:49:27.613Z,30.66
2019-02-09T10:51:53.825Z,31.30
2019-02-09T10:54:19.990Z,31.89
2019-02-09T10:56:46.262Z,31.57
2019-02-09T10:59:12.613Z,30.89
2019-02-09T11:01:38.874Z,30.79
2019-02-09T11:04:05.842Z,32.25
2019-02-09T11:06:32.095Z,32.45
2019-02-09T11:08:58.246Z,32.89
2019-02-09T11:11:24.410Z,32.62
2019-02-09T11:13:52.523Z,32.06
2019-02-09T11:16:18.702Z,31.13
2019-02-09T11:18:46.791Z,29.89
2019-02-09T11:21:12.983Z,29.48
2019-02-09T11:23:39.237Z,28.74
2019-02-09T11:26:08.032Z,29.62
2019-02-09T11:28:37.151Z,28.90
2019-02-09T11:31:03.531Z,29.21
2019-02-09T11:33:29.688Z,29.25
2019-02-09T11:35:55.997Z,28.29
2019-02-09T11:38:22.166Z,30.22
2019-02-09T11:40:48.341Z,29.90
2019-02-09T11:43:14.639Z,30.80
2019-02-09T11:45:40.793Z,31.53
2019-02-09T11:48:06.961Z,31.48
2019-02-09T11:50:33.664Z,32.39
2019-02-09T11:52:59.827Z,31.34
2019-02-09T11:55:26.085Z,30.04
2019-02-09T11:57:52.343Z,29.40
2019-02-09T12:00:27.423Z,30.05
2019-02-09T12:02:53.689Z,29.18
2019-02-09T12:05:20.288Z,29.06
2019-02-09T12:07:47.817Z,28.82
2019-02-09T12:10:16.906Z,29.98
2019-02-09T12:12:43.096Z,31.66
2019-02-09T12:15:12.970Z,32.68
2019-02-09T12:17:39.232Z,31.48
2019-02-09T12:20:30.289Z,29.51
2019-02-09T12:22:56.445Z,30.61
2019-02-09T12:25:25.322Z,28.08
2019-02-09T12:27:51.835Z,28.49
2019-02-09T12:30:20.895Z,29.56
2019-02-09T12:32:47.285Z,29.16
2019-02-09T12:35:14.165Z,28.39
2019-02-09T12:37:40.439Z,28.00
2019-02-09T12:40:10.332Z,27.35
2019-02-09T12:42:36.627Z,27.47
2019-02-09T12:45:06.405Z,27.99
2019-02-09T12:47:41.638Z,29.21
2019-02-09T12:50:11.448Z,31.31
2019-02-09T12:52:37.613Z,30.82
2019-02-09T12:55:05.786Z,30.60
2019-02-09T12:57:31.979Z,30.23
2019-02-09T12:59:58.346Z,29.65
2019-02-09T13:02:24.534Z,29.10
2019-02-09T13:04:50.714Z,29.69
2019-02-09T13:07:16.977Z,29.60
2019-02-09T13:09:44.001Z,27.94
2019-02-09T13:12:10.199Z,27.87
2019-02-09T13:14:36.371Z,29.46
2019-02-09T13:17:02.931Z,28.82
2019-02-09T13:19:29.277Z,28.39
2019-02-09T13:21:55.532Z,28.59
2019-02-09T13:24:27.551Z,28.91
2019-02-09T13:26:53.834Z,30.55
2019-02-09T13:29:20.103Z,30.83
2019-02-09T13:31:46.266Z,31.87
2019-02-09T13:34:12.460Z,31.25
2019-02-09T13:36:38.636Z,33.47
2019-02-09T13:39:06.091Z,31.31
2019-02-09T13:41:32.285Z,30.07
2019-02-09T13:43:58.460Z,31.26
2019-02-09T13:46:24.630Z,31.07
2019-02-09T13:48:50.827Z,33.19
2019-02-09T13:51:16.983Z,31.65
2019-02-09T13:53:43.250Z,30.37
2019-02-09T13:56:09.441Z,29.60
2019-02-09T13:58:35.612Z,29.82
2019-02-09T14:01:03.599Z,29.92
2019-02-09T14:03:29.995Z,30.14
2019-02-09T14:05:56.160Z,32.04
2019-02-09T14:08:22.416Z,32.34
2019-02-09T14:10:48.662Z,32.57
2019-02-09T14:13:15.017Z,32.17
2019-02-09T14:15:41.294Z,32.24
2019-02-09T14:18:09.393Z,32.51
2019-02-09T14:20:35.552Z,32.38
2019-02-09T14:23:01.817Z,32.22
2019-02-09T14:25:28.008Z,32.61
2019-02-09T14:27:56.574Z,32.71
2019-02-09T14:30:24.940Z,32.86
2019-02-09T14:32:52.054Z,33.14
2019-02-09T14:35:18.608Z,33.18
2019-02-09T14:37:44.779Z,32.73
2019-02-09T14:40:19.509Z,32.54
2019-02-09T14:42:45.762Z,33.98
2019-02-09T14:45:15.223Z,34.73
2019-02-09T14:47:41.525Z,34.51
2019-02-09T14:50:11.315Z,32.55
2019-02-09T14:52:37.965Z,32.59
2019-02-09T14:55:07.568Z,33.11
2019-02-09T14:57:33.726Z,33.18
2019-02-09T14:59:59.890Z,33.13
2019-02-09T15:02:26.086Z,33.62
2019-02-09T15:04:52.353Z,35.01
2019-02-09T15:07:18.520Z,35.61
2019-02-09T15:09:44.707Z,34.81
2019-02-09T15:12:10.976Z,35.26
2019-02-09T15:14:37.140Z,34.76
2019-02-09T15:17:05.449Z,35.23
2019-02-09T15:19:31.701Z,35.30
2019-02-09T15:21:57.877Z,35.34
2019-02-09T15:24:24.220Z,35.07
2019-02-09T15:26:50.469Z,34.63
2019-02-09T15:29:16.727Z,34.60
2019-02-09T15:31:42.926Z,34.45
2019-02-09T15:34:11.008Z,34.82
2019-02-09T15:36:37.189Z,34.49
2019-02-09T15:39:06.400Z,34.78
2019-02-09T15:41:32.667Z,36.06
2019-02-09T15:43:58.935Z,34.99
2019-02-09T15:46:25.133Z,35.14
2019-02-09T15:48:51.293Z,35.55
2019-02-09T15:51:17.456Z,35.91
2019-02-09T15:53:43.653Z,36.77
2019-02-09T15:56:09.812Z,37.08
2019-02-09T15:58:35.969Z,36.88
2019-02-09T16:01:02.279Z,37.70
2019-02-09T16:03:28.444Z,38.14
2019-02-09T16:05:54.703Z,38.70
2019-02-09T16:08:21.008Z,39.47
2019-02-09T16:10:47.263Z,41.46
2019-02-09T16:13:13.571Z,43.05
2019-02-09T16:15:42.625Z,45.40
2019-02-09T16:18:15.310Z,46.45
2019-02-09T16:20:41.480Z,43.89
2019-02-09T16:23:07.695Z,43.31
2019-02-09T16:25:33.870Z,43.89
2019-02-09T16:28:00.016Z,47.24
2019-02-09T16:30:29.594Z,47.09
2019-02-09T16:32:55.755Z,45.39
2019-02-09T16:35:26.678Z,45.32
2019-02-09T16:37:52.971Z,45.45
2019-02-09T16:40:21.245Z,46.05
2019-02-09T16:42:49.112Z,46.72
2019-02-09T16:45:27.634Z,47.05
2019-02-09T16:47:53.897Z,47.22
2019-02-09T16:50:20.667Z,46.97
2019-02-09T16:52:46.871Z,47.59
2019-02-09T16:55:16.278Z,47.65
2019-02-09T16:57:42.703Z,48.27
2019-02-09T17:00:29.401Z,48.32
2019-02-09T17:02:55.772Z,48.53
2019-02-09T17:05:21.932Z,49.27
2019-02-09T17:07:48.225Z,49.56
2019-02-09T17:10:17.120Z,49.55
2019-02-09T17:12:43.277Z,49.21
2019-02-09T17:15:22.299Z,49.06
2019-02-09T17:17:48.455Z,49.00
2019-02-09T17:20:15.436Z,49.08
2019-02-09T17:22:41.647Z,50.37
2019-02-09T17:25:11.499Z,50.90
2019-02-09T17:27:37.777Z,50.11
2019-02-09T17:30:13.410Z,51.10
2019-02-09T17:32:39.677Z,51.50
2019-02-09T17:35:08.349Z,51.84
2019-02-09T17:37:34.543Z,50.74
2019-02-09T17:40:00.691Z,50.59
2019-02-09T17:42:27.003Z,50.91
2019-02-09T17:44:53.163Z,51.48
2019-02-09T17:47:19.312Z,50.78
2019-02-09T17:49:46.634Z,51.15
2019-02-09T17:52:12.999Z,51.00
2019-02-09T17:54:39.147Z,51.11
2019-02-09T17:57:05.328Z,51.33
2019-02-09T17:59:31.521Z,51.24
2019-02-09T18:01:57.779Z,51.48
2019-02-09T18:04:23.930Z,51.34
2019-02-09T18:06:50.126Z,51.24
2019-02-09T18:09:16.540Z,51.50
2019-02-09T18:11:42.702Z,51.57
2019-02-09T18:14:08.896Z,51.24
2019-02-09T18:16:35.169Z,51.50
2019-02-09T18:19:01.428Z,51.96
2019-02-09T18:21:27.614Z,51.55
2019-02-09T18:23:53.910Z,51.99
2019-02-09T18:26:20.073Z,52.50
2019-02-09T18:28:46.278Z,52.23
2019-02-09T18:31:12.544Z,52.81
2019-02-09T18:33:38.708Z,52.49
2019-02-09T18:36:05.109Z,52.00
2019-02-09T18:38:31.367Z,51.72
2019-02-09T18:40:57.620Z,51.71
2019-02-09T18:43:23.824Z,52.32
2019-02-09T18:45:52.948Z,52.30
2019-02-09T18:48:18.143Z,52.24
2019-02-09T18:50:44.347Z,52.82
2019-02-09T18:53:10.606Z,52.62
2019-02-09T18:55:36.766Z,53.41
2019-02-09T18:58:03.066Z,54.00
2019-02-09T19:00:35.698Z,54.52
2019-02-09T19:03:01.879Z,54.01
2019-02-09T19:05:28.060Z,52.89
2019-02-09T19:07:54.221Z,52.61
2019-02-09T19:10:25.025Z,53.48
2019-02-09T19:12:51.612Z,53.61
2019-02-09T19:15:19.773Z,54.67
2019-02-09T19:17:47.306Z,54.48
2019-02-09T19:20:16.507Z,53.84
2019-02-09T19:22:42.784Z,53.10
2019-02-09T19:25:12.665Z,53.03
2019-02-09T19:27:38.867Z,52.76
2019-02-09T19:30:17.091Z,52.58
2019-02-09T19:32:43.300Z,52.65
2019-02-09T19:35:12.059Z,52.90
2019-02-09T19:37:37.722Z,53.44
2019-02-09T19:40:08.954Z,53.44
2019-02-09T19:42:35.609Z,53.82
2019-02-09T19:45:01.794Z,54.23
2019-02-09T19:47:27.977Z,53.95
2019-02-09T19:49:54.139Z,53.75
2019-02-09T19:52:20.309Z,54.48
2019-02-09T19:54:46.513Z,54.56
2019-02-09T19:57:12.676Z,54.94
2019-02-09T19:59:38.839Z,55.25
2019-02-09T20:02:05.734Z,55.28
2019-02-09T20:04:31.901Z,54.81
2019-02-09T20:06:58.163Z,54.80
2019-02-09T20:09:24.361Z,54.74
2019-02-09T20:11:50.538Z,55.42
2019-02-09T20:14:16.804Z,55.30
2019-02-09T20:16:43.107Z,54.85
2019-02-09T20:19:09.387Z,54.54
2019-02-09T20:21:35.548Z,55.46
2019-02-09T20:24:01.743Z,56.01
2019-02-09T20:26:28.024Z,56.14
2019-02-09T20:28:54.391Z,55.70
2019-02-09T20:31:20.694Z,55.63
2019-02-09T20:33:46.955Z,56.54
2019-02-09T20:36:13.119Z,54.94
2019-02-09T20:38:39.422Z,54.26
2019-02-09T20:41:05.797Z,53.22
2019-02-09T20:43:31.964Z,53.30
2019-02-09T20:45:58.166Z,53.49
2019-02-09T20:48:24.829Z,53.18
2019-02-09T20:50:50.994Z,52.86
2019-02-09T20:53:17.214Z,53.38
2019-02-09T20:55:43.481Z,53.79
2019-02-09T20:58:10.649Z,52.99
2019-02-09T21:00:36.966Z,53.07
2019-02-09T21:03:04.036Z,53.84
2019-02-09T21:05:36.081Z,53.10
2019-02-09T21:07:58.496Z,52.36
2019-02-09T21:10:37.395Z,52.91
2019-02-09T21:13:04.692Z,53.24
2019-02-09T21:15:30.960Z,53.99
2019-02-09T21:17:57.120Z,53.84
2019-02-09T21:20:23.962Z,53.75
2019-02-09T21:22:50.341Z,54.02
2019-02-09T21:25:28.111Z,53.91
2019-02-09T21:27:54.373Z,54.04
2019-02-09T21:30:22.043Z,54.41
2019-02-09T21:32:48.840Z,54.61
2019-02-09T21:35:16.092Z,54.48
2019-02-09T21:37:42.354Z,54.77
2019-02-09T21:40:12.050Z,54.87
2019-02-09T21:42:38.215Z,54.53
2019-02-09T21:45:07.886Z,53.86
2019-02-09T21:47:34.166Z,53.57
2019-02-09T21:50:01.634Z,53.70
2019-02-09T21:52:35.458Z,54.34
2019-02-09T21:55:01.728Z,54.65
2019-02-09T21:57:28.003Z,53.92
2019-02-09T21:59:54.201Z,53.92
2019-02-09T22:02:20.374Z,53.65
2019-02-09T22:04:46.531Z,54.04
2019-02-09T22:07:12.826Z,53.65
2019-02-09T22:09:38.994Z,54.01
2019-02-09T22:12:06.136Z,53.63
2019-02-09T22:14:32.495Z,53.33
2019-02-09T22:16:58.703Z,53.75
2019-02-09T22:19:24.860Z,54.17
2019-02-09T22:21:51.378Z,54.21
2019-02-09T22:24:17.772Z,53.75
2019-02-09T22:26:43.944Z,54.02
2019-02-09T22:29:10.154Z,53.81
2019-02-09T22:31:36.317Z,54.32
2019-02-09T22:34:02.921Z,54.79
2019-02-09T22:36:36.821Z,55.79
2019-02-09T22:38:57.239Z,55.53
2019-02-09T22:41:23.507Z,54.05
2019-02-09T22:43:49.692Z,53.94
2019-02-09T22:46:15.962Z,53.83
2019-02-09T22:48:42.116Z,53.07
2019-02-09T22:51:08.308Z,52.86
2019-02-09T22:53:34.471Z,53.13
2019-02-09T22:56:00.742Z,53.24
2019-02-09T22:58:26.933Z,54.24
2019-02-09T23:01:16.262Z,53.84
2019-02-09T23:03:46.165Z,53.99
2019-02-09T23:06:21.712Z,54.48
2019-02-09T23:08:51.304Z,53.76
2019-02-09T23:11:17.566Z,53.61
2019-02-09T23:13:43.843Z,53.47
2019-02-09T23:16:10.050Z,53.59
2019-02-09T23:18:36.320Z,53.51
2019-02-09T23:21:02.584Z,53.68
2019-02-09T23:23:28.832Z,53.53
2019-02-09T23:25:55.151Z,53.43
2019-02-09T23:28:21.281Z,53.44
2019-02-09T23:30:47.595Z,53.61
2019-02-09T23:33:13.765Z,53.76
2019-02-09T23:35:40.332Z,53.62
2019-02-09T23:38:06.418Z,53.79
2019-02-09T23:40:32.692Z,53.32
2019-02-09T23:42:58.965Z,54.27
2019-02-09T23:45:25.160Z,54.01
2019-02-09T23:47:51.422Z,53.79
2019-02-09T23:50:17.712Z,54.08
2019-02-09T23:52:43.900Z,55.03
2019-02-09T23:55:10.156Z,54.83
2019-02-09T23:57:36.315Z,55.18
